Chantilly, VA (20151)

9:27 PM EDT on August 25, 2016 (GMT -0400)
Ridings at Blue Springs | | Change Station

Elev 303 ft 38.90 °N, 77.48 °W | Updated 42 seconds ago

Scattered Clouds
Scattered Clouds
81.3 °F
Feels Like 87 °F
N
0.0
Wind Variable Wind from South
Gusts 0.0 mph

Today
High -- | Low -- °F
--% Chance of Precip.
Yesterday
High -- | Low -- °F
Precip. -- in
Pressure 30.02 in
Visibility 10.0 miles
Clouds Scattered Clouds 25000 ft
Heat Index 87 °F
Dew Point 75 °F
Humidity 81%
Rainfall 0.00 in
Snow Depth Not available.
6:32 AM 7:49 PM
Last Quarter, 40% visible
METAR KIAD 260052Z 17004KT 10SM SCT250 28/23 A3003 RMK AO2 SLP166 T02830233
Pressure 30.02 in
Visibility 10.0 miles
Clouds Scattered Clouds 25000 ft
Heat Index 87 °F
Dew Point 75 °F
Humidity 81%
Rainfall 0.00 in
Snow Depth Not available.
6:32 AM 7:49 PM
Last Quarter, 40% visible
METAR KIAD 260052Z 17004KT 10SM SCT250 28/23 A3003 RMK AO2 SLP166 T02830233
A tropical disturbance pushing toward the Bahamas, is expected to develop into a tropical depression or storm, and will likely target Florida and the Gulf Coast this weekend into next week.

Right now, the disturbance remains a broad area of low pressure pushing through the Dominican Republic and Haiti, headed toward the southeast Bahamas. Rainfall totals over 3 inches (with locally higher amounts) are expected in HispaƱiola, particularly over elevated terrain.

10-Day Weather Forecast

Almanac

Astronomy

Aug. 25, 2016 Rise Set
Actual Time
Civil Twilight
Nautical Twilight
Astronomical Twilight
Moon
Length of Visible Light
Length of Day
Tomorrow will be .
, % of the Moon is Illuminated

Today's Extremes

State Highs State Lows

Community

WunderPhotos

Upload Photos

1,935,005 photos uploaded!

WunderBlog® & News

Nearby

Air Quality

  Air Quality AQ Index Pollutant
Not available.

Snow Depth

Station Depth Elevation

Earthquake Activity

City Distance Mag. Time & Date
Minimum magnitude displayed is 2.5.

Coastal Water Temperatures

Place Temperature

Stations

Nearby Weather Stations

Station Location Temp. Windchill Dew Point Humidity Wind Precip. Elev Updated Type
                   

Watches & Warnings

There are currently no watches in effect.